Disclaimer

Please do not use the information listed here in-flight or in-navigation, as they are not provided to us by the airports but are provided by volunteers, so they might be outdated.

Search


Regions


Airport information page

Radio informations:
Tower (TWR) - 118.1 MHz
RDO - 5447.5 MHz
Approach (APP) - 122.0 MHz

Airport informations:
Latitude: 09° 44' 31.63" N
Longitude: 118° 45' 31.43" E
Elevation: 71 feet - 22 meters
Operating hours: Remarks
Operating agency: Civil government, landing fees and diplomatic clearance may be required
Timezone: UTC+8
Fuel: Jet A1, without icing nhibitor.

Runway information:
09/27 - 8530 x 148 feet< - >2600 x 45 meters

Recent METARs:
RPVP 122100Z 27006KT 9999 FEW019 25/23 Q1008 RMK A2977
RPVP 122200Z 27004KT 9999 FEW019 25/23 Q1008 RMK A2977
RPVP 122200Z 27004KT 9999 FEW019 25/23 Q1008 RMK A2977

Airport on the map: